sensor_id;sensor_type;location;lat;lon;timestamp;temperature;humidity
67165;SHT31;54093;50.014;19.984;2023-05-10T00:02:33;7.00;69.40
67165;SHT31;54093;50.014;19.984;2023-05-10T00:11:54;6.92;69.40
67165;SHT31;54093;50.014;19.984;2023-05-10T00:21:15;6.65;69.51
67165;SHT31;54093;50.014;19.984;2023-05-10T00:30:36;6.54;70.74
67165;SHT31;54093;50.014;19.984;2023-05-10T00:39:57;6.48;70.56
67165;SHT31;54093;50.014;19.984;2023-05-10T00:49:18;6.33;69.39
67165;SHT31;54093;50.014;19.984;2023-05-10T00:58:40;6.24;70.31
67165;SHT31;54093;50.014;19.984;2023-05-10T01:08:01;6.09;69.81
67165;SHT31;54093;50.014;19.984;2023-05-10T01:17:23;5.92;70.19
67165;SHT31;54093;50.014;19.984;2023-05-10T01:36:46;5.72;71.07
67165;SHT31;54093;50.014;19.984;2023-05-10T01:46:10;5.70;70.10
67165;SHT31;54093;50.014;19.984;2023-05-10T01:55:43;5.55;71.00
67165;SHT31;54093;50.014;19.984;2023-05-10T02:05:07;5.37;71.08
67165;SHT31;54093;50.014;19.984;2023-05-10T02:14:30;5.24;71.37
67165;SHT31;54093;50.014;19.984;2023-05-10T02:23:53;5.23;71.03
67165;SHT31;54093;50.014;19.984;2023-05-10T02:33:15;5.10;71.62
67165;SHT31;54093;50.014;19.984;2023-05-10T02:42:37;5.01;71.14
67165;SHT31;54093;50.014;19.984;2023-05-10T02:52:01;4.97;72.81
67165;SHT31;54093;50.014;19.984;2023-05-10T03:01:24;4.94;71.44
67165;SHT31;54093;50.014;19.984;2023-05-10T03:11:08;4.68;71.75
67165;SHT31;54093;50.014;19.984;2023-05-10T03:20:41;4.75;72.54
67165;SHT31;54093;50.014;19.984;2023-05-10T03:30:03;4.59;71.89
67165;SHT31;54093;50.014;19.984;2023-05-10T03:39:24;4.62;72.92
67165;SHT31;54093;50.014;19.984;2023-05-10T03:48:45;4.58;72.80
67165;SHT31;54093;50.014;19.984;2023-05-10T03:58:06;4.70;72.63
67165;SHT31;54093;50.014;19.984;2023-05-10T04:07:31;4.84;72.62
67165;SHT31;54093;50.014;19.984;2023-05-10T04:16:51;5.06;72.44
67165;SHT31;54093;50.014;19.984;2023-05-10T04:26:13;5.21;72.23
67165;SHT31;54093;50.014;19.984;2023-05-10T04:35:34;5.39;71.92
67165;SHT31;54093;50.014;19.984;2023-05-10T04:44:55;5.52;72.39
67165;SHT31;54093;50.014;19.984;2023-05-10T04:54:16;5.75;72.36
67165;SHT31;54093;50.014;19.984;2023-05-10T05:03:37;6.02;72.15
67165;SHT31;54093;50.014;19.984;2023-05-10T05:12:58;6.24;72.16
67165;SHT31;54093;50.014;19.984;2023-05-10T05:22:19;6.56;72.15
67165;SHT31;54093;50.014;19.984;2023-05-10T05:31:47;6.97;72.74
67165;SHT31;54093;50.014;19.984;2023-05-10T05:41:08;7.88;72.32
67165;SHT31;54093;50.014;19.984;2023-05-10T05:50:29;8.84;72.28
67165;SHT31;54093;50.014;19.984;2023-05-10T05:59:50;10.28;68.15
67165;SHT31;54093;50.014;19.984;2023-05-10T06:09:11;11.24;64.41
67165;SHT31;54093;50.014;19.984;2023-05-10T06:18:32;12.10;64.36
67165;SHT31;54093;50.014;19.984;2023-05-10T06:27:53;13.20;61.43
67165;SHT31;54093;50.014;19.984;2023-05-10T06:37:17;14.11;61.10
67165;SHT31;54093;50.014;19.984;2023-05-10T06:46:38;15.45;58.59
67165;SHT31;54093;50.014;19.984;2023-05-10T06:55:59;16.45;53.62
67165;SHT31;54093;50.014;19.984;2023-05-10T07:05:20;17.02;53.45
67165;SHT31;54093;50.014;19.984;2023-05-10T07:14:42;17.71;51.53
67165;SHT31;54093;50.014;19.984;2023-05-10T07:24:03;18.47;48.61
67165;SHT31;54093;50.014;19.984;2023-05-10T07:33:24;19.64;45.78
67165;SHT31;54093;50.014;19.984;2023-05-10T07:42:44;20.25;43.10
67165;SHT31;54093;50.014;19.984;2023-05-10T07:52:05;20.75;43.34
67165;SHT31;54093;50.014;19.984;2023-05-10T08:01:27;21.32;42.47
67165;SHT31;54093;50.014;19.984;2023-05-10T08:10:50;21.68;40.84
67165;SHT31;54093;50.014;19.984;2023-05-10T08:20:11;22.30;38.76
67165;SHT31;54093;50.014;19.984;2023-05-10T08:29:33;22.57;33.15
67165;SHT31;54093;50.014;19.984;2023-05-10T08:38:54;21.35;31.44
67165;SHT31;54093;50.014;19.984;2023-05-10T08:48:16;21.83;31.80
67165;SHT31;54093;50.014;19.984;2023-05-10T08:57:37;21.48;34.04
67165;SHT31;54093;50.014;19.984;2023-05-10T09:06:58;22.63;32.28
67165;SHT31;54093;50.014;19.984;2023-05-10T09:16:19;22.98;31.24
67165;SHT31;54093;50.014;19.984;2023-05-10T09:25:43;21.08;30.31
67165;SHT31;54093;50.014;19.984;2023-05-10T09:35:15;22.16;30.84
67165;SHT31;54093;50.014;19.984;2023-05-10T09:44:36;22.68;30.76
67165;SHT31;54093;50.014;19.984;2023-05-10T10:03:32;22.55;28.67
67165;SHT31;54093;50.014;19.984;2023-05-10T10:12:54;23.18;29.18
67165;SHT31;54093;50.014;19.984;2023-05-10T10:22:16;24.33;27.83
67165;SHT31;54093;50.014;19.984;2023-05-10T10:31:57;24.62;27.54
67165;SHT31;54093;50.014;19.984;2023-05-10T10:41:34;24.79;28.04
67165;SHT31;54093;50.014;19.984;2023-05-10T10:50:56;24.80;26.55
67165;SHT31;54093;50.014;19.984;2023-05-10T11:00:38;24.80;26.88
67165;SHT31;54093;50.014;19.984;2023-05-10T11:10:04;24.69;26.00
67165;SHT31;54093;50.014;19.984;2023-05-10T11:19:27;24.36;25.91
67165;SHT31;54093;50.014;19.984;2023-05-10T11:28:49;24.25;28.30
67165;SHT31;54093;50.014;19.984;2023-05-10T11:38:13;24.35;27.98
67165;SHT31;54093;50.014;19.984;2023-05-10T11:47:34;23.01;28.41
67165;SHT31;54093;50.014;19.984;2023-05-10T11:56:56;22.57;29.31
67165;SHT31;54093;50.014;19.984;2023-05-10T12:06:20;22.54;31.28
67165;SHT31;54093;50.014;19.984;2023-05-10T12:15:43;22.87;28.60
67165;SHT31;54093;50.014;19.984;2023-05-10T12:25:04;23.13;30.49
67165;SHT31;54093;50.014;19.984;2023-05-10T12:34:33;23.16;31.75
67165;SHT31;54093;50.014;19.984;2023-05-10T12:43:55;23.49;29.34
67165;SHT31;54093;50.014;19.984;2023-05-10T12:53:16;23.34;29.92
67165;SHT31;54093;50.014;19.984;2023-05-10T13:02:37;23.03;31.02
67165;SHT31;54093;50.014;19.984;2023-05-10T13:11:58;23.42;30.73
67165;SHT31;54093;50.014;19.984;2023-05-10T13:21:19;22.90;29.86
67165;SHT31;54093;50.014;19.984;2023-05-10T13:30:40;22.98;31.36
67165;SHT31;54093;50.014;19.984;2023-05-10T13:40:01;23.15;29.89
67165;SHT31;54093;50.014;19.984;2023-05-10T13:49:22;22.82;33.05
67165;SHT31;54093;50.014;19.984;2023-05-10T13:58:43;22.55;33.74
67165;SHT31;54093;50.014;19.984;2023-05-10T14:08:04;22.78;30.54
67165;SHT31;54093;50.014;19.984;2023-05-10T14:17:25;22.74;32.23
67165;SHT31;54093;50.014;19.984;2023-05-10T14:26:46;22.54;32.47
67165;SHT31;54093;50.014;19.984;2023-05-10T14:36:07;22.54;32.12
67165;SHT31;54093;50.014;19.984;2023-05-10T14:45:29;22.34;32.53
67165;SHT31;54093;50.014;19.984;2023-05-10T14:54:49;22.06;30.82
67165;SHT31;54093;50.014;19.984;2023-05-10T15:04:11;21.61;32.69
67165;SHT31;54093;50.014;19.984;2023-05-10T15:13:34;21.35;33.15
67165;SHT31;54093;50.014;19.984;2023-05-10T15:23:10;21.08;33.53
67165;SHT31;54093;50.014;19.984;2023-05-10T15:32:31;20.75;33.02
67165;SHT31;54093;50.014;19.984;2023-05-10T15:41:52;20.59;33.53
67165;SHT31;54093;50.014;19.984;2023-05-10T15:51:14;20.18;33.08
67165;SHT31;54093;50.014;19.984;2023-05-10T16:00:37;19.97;34.54
67165;SHT31;54093;50.014;19.984;2023-05-10T16:09:59;19.62;34.04
67165;SHT31;54093;50.014;19.984;2023-05-10T16:19:23;19.26;35.68
67165;SHT31;54093;50.014;19.984;2023-05-10T16:28:44;19.12;36.05
67165;SHT31;54093;50.014;19.984;2023-05-10T16:38:06;18.81;36.51
67165;SHT31;54093;50.014;19.984;2023-05-10T16:47:27;18.57;37.29
67165;SHT31;54093;50.014;19.984;2023-05-10T16:56:48;18.25;37.93
67165;SHT31;54093;50.014;19.984;2023-05-10T17:06:10;18.06;38.57
67165;SHT31;54093;50.014;19.984;2023-05-10T17:15:34;17.93;39.40
67165;SHT31;54093;50.014;19.984;2023-05-10T17:24:55;17.67;38.22
67165;SHT31;54093;50.014;19.984;2023-05-10T17:34:16;17.45;38.74
67165;SHT31;54093;50.014;19.984;2023-05-10T17:43:37;17.26;40.67
67165;SHT31;54093;50.014;19.984;2023-05-10T17:52:59;17.12;41.10
67165;SHT31;54093;50.014;19.984;2023-05-10T18:02:20;16.97;41.99
67165;SHT31;54093;50.014;19.984;2023-05-10T18:11:41;16.83;42.69
67165;SHT31;54093;50.014;19.984;2023-05-10T18:21:02;16.44;43.06
67165;SHT31;54093;50.014;19.984;2023-05-10T18:30:23;16.08;43.74
67165;SHT31;54093;50.014;19.984;2023-05-10T18:39:44;15.91;45.90
67165;SHT31;54093;50.014;19.984;2023-05-10T18:49:05;15.69;45.94
67165;SHT31;54093;50.014;19.984;2023-05-10T18:58:28;15.43;46.63
67165;SHT31;54093;50.014;19.984;2023-05-10T19:07:49;15.31;47.15
67165;SHT31;54093;50.014;19.984;2023-05-10T19:17:10;15.07;48.27
67165;SHT31;54093;50.014;19.984;2023-05-10T19:26:31;14.90;49.14
67165;SHT31;54093;50.014;19.984;2023-05-10T19:35:52;14.71;49.61
67165;SHT31;54093;50.014;19.984;2023-05-10T19:45:13;14.53;50.99
67165;SHT31;54093;50.014;19.984;2023-05-10T19:54:35;14.33;51.29
67165;SHT31;54093;50.014;19.984;2023-05-10T20:03:55;14.13;51.03
67165;SHT31;54093;50.014;19.984;2023-05-10T20:13:16;14.02;52.19
67165;SHT31;54093;50.014;19.984;2023-05-10T20:22:37;13.91;53.12
67165;SHT31;54093;50.014;19.984;2023-05-10T20:31:58;13.74;53.71
67165;SHT31;54093;50.014;19.984;2023-05-10T20:41:19;13.51;53.01
67165;SHT31;54093;50.014;19.984;2023-05-10T20:50:40;13.34;53.96
67165;SHT31;54093;50.014;19.984;2023-05-10T21:00:01;13.28;55.31
67165;SHT31;54093;50.014;19.984;2023-05-10T21:09:23;13.20;54.94
67165;SHT31;54093;50.014;19.984;2023-05-10T21:18:43;13.00;55.57
67165;SHT31;54093;50.014;19.984;2023-05-10T21:28:04;12.84;55.47
67165;SHT31;54093;50.014;19.984;2023-05-10T21:37:28;12.71;56.53
67165;SHT31;54093;50.014;19.984;2023-05-10T21:46:49;12.55;56.68
67165;SHT31;54093;50.014;19.984;2023-05-10T21:56:10;12.36;56.35
67165;SHT31;54093;50.014;19.984;2023-05-10T22:05:31;12.16;56.28
67165;SHT31;54093;50.014;19.984;2023-05-10T22:14:52;12.00;58.80
67165;SHT31;54093;50.014;19.984;2023-05-10T22:24:13;12.07;58.95
67165;SHT31;54093;50.014;19.984;2023-05-10T22:33:34;11.96;58.85
67165;SHT31;54093;50.014;19.984;2023-05-10T22:42:55;11.70;58.54
67165;SHT31;54093;50.014;19.984;2023-05-10T22:52:16;11.38;58.96
67165;SHT31;54093;50.014;19.984;2023-05-10T23:01:36;11.10;60.52
67165;SHT31;54093;50.014;19.984;2023-05-10T23:10:57;11.00;60.17
67165;SHT31;54093;50.014;19.984;2023-05-10T23:20:18;10.97;60.98
67165;SHT31;54093;50.014;19.984;2023-05-10T23:29:39;10.77;61.54
67165;SHT31;54093;50.014;19.984;2023-05-10T23:39:00;10.56;61.20
67165;SHT31;54093;50.014;19.984;2023-05-10T23:48:21;10.34;61.91
67165;SHT31;54093;50.014;19.984;2023-05-10T23:57:42;10.05;62.79
